Time;durP1;ratioP1;P1;durP2;ratioP2;P2;SDS_P1;SDS_P2;PMS_P1;PMS_P2;Temp;Humidity;BMP_temperature;BMP_pressure;BME280_temperature;BME280_humidity;BME280_pressure;Samples;Min_cycle;Max_cycle;Signal;HPM_P1;HPM_P2
2022/08/13 00:01:22;;;;;;;1.48;1.38;;;28.00;42.20;;;-147.20;100.00;58430.41;5112611;28;20501;-9
2022/08/13 00:03:55;;;;;;;1.00;1.00;;;28.10;42.30;;;-147.20;100.00;58430.41;5112718;28;20051;-9
2022/08/13 00:09:12;;;;;;;1.30;1.20;;;28.00;42.20;;;-147.20;100.00;58430.41;5070593;28;20060;-9
2022/08/13 00:14:33;;;;;;;1.40;1.30;;;28.00;42.30;;;-147.20;100.00;58430.41;5112850;28;19931;-9
2022/08/13 00:17:00;;;;;;;1.90;1.52;;;28.00;42.20;;;-147.20;100.00;58430.41;5113112;28;20491;-9
2022/08/13 00:19:29;;;;;;;1.63;1.52;;;28.00;42.20;;;-147.20;100.00;58430.41;5112361;28;20063;-10
2022/08/13 00:21:57;;;;;;;1.73;1.48;;;28.00;42.20;;;-147.20;100.00;58430.41;5112400;28;20432;-9
2022/08/13 00:24:24;;;;;;;1.58;1.42;;;28.00;42.20;;;-147.20;100.00;58430.41;5112416;28;20048;-10
2022/08/13 00:26:50;;;;;;;1.50;1.40;;;28.00;42.20;;;-147.20;100.00;58430.41;5112386;28;20377;-9
2022/08/13 00:29:16;;;;;;;1.42;1.33;;;28.00;42.20;;;-147.20;100.00;58430.41;5093986;28;20046;-10
2022/08/13 00:31:46;;;;;;;1.38;1.27;;;28.10;42.30;;;-147.20;100.00;58430.41;5112433;28;20137;-10
2022/08/13 00:34:12;;;;;;;1.70;1.60;;;28.00;42.20;;;-147.20;100.00;58430.41;5112333;28;20086;-9
2022/08/13 00:36:38;;;;;;;1.60;1.50;;;28.00;42.20;;;-147.20;100.00;58430.41;5112198;28;20067;-9
2022/08/13 00:39:08;;;;;;;2.70;1.50;;;28.00;42.30;;;-147.20;100.00;58430.41;5112342;28;20043;-9
2022/08/13 00:41:43;;;;;;;1.80;1.70;;;28.00;42.30;;;-147.20;100.00;58430.41;5112403;28;20043;-10
2022/08/13 00:44:13;;;;;;;1.60;1.50;;;28.00;42.30;;;-147.20;100.00;58430.41;5112525;28;20127;-9
2022/08/13 00:46:41;;;;;;;1.77;1.67;;;28.00;42.30;;;-147.20;100.00;58430.41;5111912;28;20181;-9
2022/08/13 00:49:10;;;;;;;1.80;1.50;;;28.00;42.30;;;-147.20;100.00;58430.41;5115547;28;20516;-9
2022/08/13 00:51:37;;;;;;;1.60;1.50;;;28.00;42.30;;;-147.20;100.00;58430.41;5115697;28;20039;-10
2022/08/13 00:54:12;;;;;;;2.30;1.88;;;28.00;42.30;;;-147.20;100.00;58430.41;5064216;28;20379;-9
2022/08/13 00:56:38;;;;;;;1.60;1.50;;;28.00;42.30;;;-147.20;100.00;58430.41;5115735;28;20054;-10
2022/08/13 00:59:14;;;;;;;2.03;1.70;;;28.00;42.30;;;-147.20;100.00;58430.41;5115531;28;20044;-9
2022/08/13 01:01:43;;;;;;;1.40;1.30;;;28.00;42.30;;;-147.20;100.00;58430.41;5115650;28;20047;-10
2022/08/13 01:04:09;;;;;;;1.60;1.50;;;28.00;42.40;;;-147.20;100.00;58430.41;5112322;28;20050;-9
2022/08/13 01:06:35;;;;;;;1.30;1.20;;;27.90;42.30;;;-147.20;100.00;58430.41;5115234;28;20047;-10
2022/08/13 01:09:04;;;;;;;1.63;1.52;;;28.00;42.40;;;-147.20;100.00;58430.41;5115345;28;20059;-10
2022/08/13 01:11:32;;;;;;;1.73;1.38;;;28.00;42.40;;;-147.20;100.00;58430.41;5115283;28;20061;-10
2022/08/13 01:14:03;;;;;;;2.80;1.63;;;27.90;42.30;;;-147.20;100.00;58430.41;5097207;28;20059;-10
2022/08/13 01:16:35;;;;;;;1.92;1.70;;;27.90;42.30;;;-147.20;100.00;58430.41;5115157;28;20135;-10
2022/08/13 01:19:03;;;;;;;1.60;1.50;;;27.90;42.30;;;-147.20;100.00;58430.41;5097791;28;20055;-9
2022/08/13 01:21:40;;;;;;;1.67;1.38;;;27.90;42.30;;;-147.20;100.00;58430.41;5115477;28;20485;-10
2022/08/13 01:24:10;;;;;;;1.48;1.38;;;27.90;42.40;;;-147.20;100.00;58430.41;5097365;28;20035;-9
2022/08/13 01:26:36;;;;;;;1.52;1.42;;;27.90;42.40;;;-147.20;100.00;58430.41;5115045;28;20054;-10
2022/08/13 01:29:05;;;;;;;2.17;1.52;;;27.90;42.40;;;-147.20;100.00;58430.41;5114895;28;20044;-10
2022/08/13 01:31:32;;;;;;;1.88;1.60;;;27.90;42.40;;;-147.20;100.00;58430.41;5114915;28;20044;-10
2022/08/13 01:33:59;;;;;;;1.90;1.52;;;27.90;42.40;;;-147.20;100.00;58430.41;5114994;28;20474;-9
2022/08/13 01:36:27;;;;;;;1.55;1.45;;;27.90;42.40;;;-147.20;100.00;58430.41;5096789;28;20074;-9
2022/08/13 01:38:53;;;;;;;1.67;1.58;;;27.90;42.40;;;-147.20;100.00;58430.41;5114992;28;20079;-9
2022/08/13 01:41:19;;;;;;;2.58;1.88;;;27.90;42.40;;;-147.20;100.00;58430.41;5114804;28;20480;-10
2022/08/13 01:43:46;;;;;;;1.60;1.50;;;27.90;42.40;;;-147.20;100.00;58430.41;5114782;28;20386;-10
2022/08/13 01:46:12;;;;;;;1.60;1.50;;;27.90;42.50;;;-147.20;100.00;58430.41;5096663;28;20043;-9
2022/08/13 01:51:31;;;;;;;1.88;1.77;;;27.90;42.50;;;-147.20;100.00;58430.41;5114715;28;20105;-9
2022/08/13 01:53:59;;;;;;;2.17;1.85;;;27.90;42.50;;;-147.20;100.00;58430.41;5111790;28;20047;-9
2022/08/13 01:56:28;;;;;;;1.92;1.73;;;27.90;42.50;;;-147.20;100.00;58430.41;5114537;28;20047;-9
2022/08/13 01:59:01;;;;;;;1.85;1.52;;;27.90;42.50;;;-147.20;100.00;58430.41;5113589;28;20051;-9
2022/08/13 02:01:30;;;;;;;1.40;1.30;;;27.90;42.50;;;-147.20;100.00;58430.41;5114536;28;20054;-10
2022/08/13 02:03:57;;;;;;;1.75;1.50;;;27.90;42.50;;;-147.20;100.00;58430.41;5114453;28;20140;-9
2022/08/13 02:06:29;;;;;;;1.63;1.52;;;27.90;42.50;;;-147.20;100.00;58430.41;5114486;28;20043;-10
2022/08/13 02:08:59;;;;;;;1.42;1.33;;;27.90;42.50;;;-147.20;100.00;58430.41;5114808;28;20043;-10
2022/08/13 02:11:28;;;;;;;1.50;1.40;;;27.80;42.40;;;-147.20;100.00;58430.41;5114480;28;20134;-10
2022/08/13 02:13:55;;;;;;;1.73;1.63;;;27.90;42.50;;;-147.20;100.00;58430.41;5096277;28;20043;-10
2022/08/13 02:16:22;;;;;;;2.47;1.40;;;27.90;42.60;;;-147.20;100.00;58430.41;5114306;28;20058;-9
2022/08/13 02:18:53;;;;;;;1.52;1.42;;;27.90;42.50;;;-147.20;100.00;58430.41;5114148;28;20063;-10
2022/08/13 02:21:22;;;;;;;1.60;1.30;;;27.80;42.50;;;-147.20;100.00;58430.41;5114185;28;20050;-10
2022/08/13 02:23:57;;;;;;;1.88;1.63;;;27.90;42.60;;;-147.20;100.00;58430.41;5114048;28;20055;-10
2022/08/13 02:26:26;;;;;;;1.50;1.40;;;27.80;42.50;;;-147.20;100.00;58430.41;5114125;28;20134;-10
2022/08/13 02:28:56;;;;;;;1.75;1.65;;;27.80;42.50;;;-147.20;100.00;58430.41;5113772;28;20130;-10
2022/08/13 02:31:23;;;;;;;1.80;1.50;;;27.80;42.50;;;-147.20;100.00;58430.41;5113980;28;20487;-10
2022/08/13 02:33:49;;;;;;;2.22;1.52;;;27.80;42.50;;;-147.20;100.00;58430.41;5114354;28;20059;-9
2022/08/13 02:36:22;;;;;;;1.60;1.50;;;27.80;42.50;;;-147.20;100.00;58430.41;5095742;28;20036;-9
2022/08/13 02:39:01;;;;;;;1.55;1.45;;;27.80;42.50;;;-147.20;100.00;58430.41;5114278;28;20058;-10
2022/08/13 02:41:43;;;;;;;2.47;1.50;;;27.80;42.50;;;-147.20;100.00;58430.41;5095669;28;20043;-10
2022/08/13 02:44:15;;;;;;;1.50;1.40;;;27.80;42.50;;;-147.20;100.00;58430.41;5095637;28;20441;-9
2022/08/13 02:46:45;;;;;;;1.90;1.70;;;27.80;42.50;;;-147.20;100.00;58430.41;5113928;28;20071;-9
2022/08/13 02:49:12;;;;;;;1.67;1.58;;;27.80;42.50;;;-147.20;100.00;58430.41;5113795;28;20426;-10
2022/08/13 02:51:38;;;;;;;2.83;1.60;;;27.80;42.50;;;-147.20;100.00;58430.41;5113978;28;20048;-9
2022/08/13 02:54:06;;;;;;;1.70;1.60;;;27.80;42.50;;;-147.20;100.00;58430.41;5113800;28;20058;-9
2022/08/13 02:56:34;;;;;;;1.55;1.45;;;27.80;42.50;;;-147.20;100.00;58430.41;5113709;28;20055;-9
2022/08/13 02:59:00;;;;;;;2.08;1.50;;;27.80;42.60;;;-147.20;100.00;58430.41;5113546;28;20036;-9
2022/08/13 03:01:26;;;;;;;1.67;1.58;;;27.80;42.50;;;-147.20;100.00;58430.41;5113922;28;20054;-9
2022/08/13 03:03:53;;;;;;;1.83;1.60;;;27.80;42.50;;;-147.20;100.00;58430.41;5095565;28;20044;-10
2022/08/13 03:06:20;;;;;;;1.55;1.45;;;27.70;42.50;;;-147.20;100.00;58430.41;5113860;28;20047;-10
2022/08/13 03:08:51;;;;;;;1.40;1.30;;;27.80;42.50;;;-147.20;100.00;58430.41;5113356;28;20079;-9
2022/08/13 03:11:17;;;;;;;;;;;27.80;42.60;;;-147.20;100.00;58430.41;5113511;28;20138;-10
2022/08/13 03:14:04;;;;;;;1.50;1.40;;;27.80;42.60;;;-147.20;100.00;58430.41;5113388;28;20010;-10
2022/08/13 03:16:30;;;;;;;1.70;1.50;;;27.80;42.60;;;-147.20;100.00;58430.41;5094895;28;20483;-11
2022/08/13 03:18:58;;;;;;;1.75;1.65;;;27.70;42.50;;;-147.20;100.00;58430.41;5113672;28;20047;-10
2022/08/13 03:21:30;;;;;;;1.50;1.40;;;27.80;42.60;;;-147.20;100.00;58430.41;5113187;28;20046;-9
2022/08/13 03:23:56;;;;;;;2.50;1.48;;;27.70;42.50;;;-147.20;100.00;58430.41;5113442;28;20040;-9
2022/08/13 03:26:22;;;;;;;1.65;1.55;;;27.70;42.50;;;-147.20;100.00;58430.41;5113356;28;20067;-9
2022/08/13 03:28:51;;;;;;;1.90;1.65;;;27.70;42.50;;;-147.20;100.00;58430.41;5095143;28;20487;-9
2022/08/13 03:31:19;;;;;;;1.60;1.50;;;27.70;42.50;;;-147.20;100.00;58430.41;5113027;28;20048;-10
2022/08/13 03:33:45;;;;;;;1.67;1.58;;;27.70;42.50;;;-147.20;100.00;58430.41;5113417;28;20048;-9
2022/08/13 03:36:11;;;;;;;1.60;1.50;;;27.80;42.60;;;-147.20;100.00;58430.41;5076732;28;20113;-9
2022/08/13 03:38:37;;;;;;;1.55;1.45;;;27.70;42.50;;;-147.20;100.00;58430.41;5113158;28;20477;-10
2022/08/13 03:41:14;;;;;;;1.50;1.40;;;27.70;42.50;;;-147.20;100.00;58430.41;5112974;28;20056;-10
2022/08/13 03:43:43;;;;;;;1.50;1.40;;;27.70;42.50;;;-147.20;100.00;58430.41;5112951;28;20481;-10
2022/08/13 03:46:14;;;;;;;1.63;1.52;;;27.70;42.60;;;-147.20;100.00;58430.41;5112959;28;20134;-9
2022/08/13 03:48:41;;;;;;;1.70;1.60;;;27.70;42.60;;;-147.20;100.00;58430.41;5095306;28;20396;-10
2022/08/13 03:51:07;;;;;;;1.33;1.23;;;27.70;42.50;;;-147.20;100.00;58430.41;5112863;28;20040;-9
2022/08/13 03:53:35;;;;;;;3.10;1.80;;;27.70;42.80;;;-147.20;100.00;58430.41;5113094;28;20051;-9
2022/08/13 03:56:01;;;;;;;1.70;1.50;;;27.70;42.60;;;-147.20;100.00;58430.41;5112862;28;20048;-9
2022/08/13 03:58:28;;;;;;;1.42;1.33;;;27.70;42.60;;;-147.20;100.00;58430.41;5113103;28;20044;-10
2022/08/13 04:00:54;;;;;;;2.13;1.70;;;27.70;42.60;;;-147.20;100.00;58430.41;5113099;28;20048;-9
2022/08/13 04:03:28;;;;;;;2.58;1.67;;;27.70;42.60;;;-147.20;100.00;58430.41;5112782;28;20542;-9
2022/08/13 04:06:12;;;;;;;2.00;1.60;;;27.70;42.60;;;-147.20;100.00;58430.41;5113092;28;20066;-9
2022/08/13 04:08:38;;;;;;;1.85;1.75;;;27.70;42.50;;;-147.20;100.00;58430.41;5112766;28;20071;-9
2022/08/13 04:11:10;;;;;;;1.60;1.50;;;27.70;42.60;;;-147.20;100.00;58430.41;5112470;28;20048;-10
2022/08/13 04:13:36;;;;;;;1.77;1.45;;;27.70;42.50;;;-147.20;100.00;58430.41;5112554;28;20062;-9
2022/08/13 04:16:11;;;;;;;1.67;1.30;;;27.70;42.50;;;-147.20;100.00;58430.41;5112848;28;20052;-10
2022/08/13 04:18:39;;;;;;;1.92;1.50;;;27.80;42.60;;;-147.20;100.00;58430.41;5112682;28;20082;-9
2022/08/13 04:21:08;;;;;;;2.83;1.50;;;27.80;42.60;;;-147.20;100.00;58430.41;5112265;28;20039;-10
2022/08/13 04:23:39;;;;;;;2.03;1.55;;;27.80;42.50;;;-147.20;100.00;58430.41;5114713;28;20079;-10
2022/08/13 04:26:11;;;;;;;1.75;1.65;;;27.80;42.50;;;-147.20;100.00;58430.41;5116623;28;20132;-10
2022/08/13 04:28:38;;;;;;;1.88;1.60;;;27.80;42.50;;;-147.20;100.00;58430.41;5098258;28;20060;-10
2022/08/13 04:31:05;;;;;;;1.70;1.60;;;27.80;42.40;;;-147.20;100.00;58430.41;5115874;28;20044;-10
2022/08/13 04:33:31;;;;;;;1.67;1.58;;;27.90;42.50;;;-147.20;100.00;58430.41;5116018;28;20040;-10
2022/08/13 04:35:57;;;;;;;1.60;1.50;;;27.90;42.40;;;-147.20;100.00;58430.41;5115916;28;20043;-9
2022/08/13 04:38:23;;;;;;;2.05;1.50;;;27.90;42.40;;;-147.20;100.00;58430.41;5097036;28;20191;-9
2022/08/13 04:40:51;;;;;;;2.17;1.80;;;27.90;42.40;;;-147.20;100.00;58430.41;5115771;28;20055;-9
2022/08/13 04:43:17;;;;;;;1.40;1.30;;;28.00;42.40;;;-147.20;100.00;58430.41;5115718;28;20043;-10
2022/08/13 04:45:43;;;;;;;1.70;1.60;;;28.00;42.30;;;-147.20;100.00;58430.41;5115699;28;20067;-11
2022/08/13 04:48:15;;;;;;;1.55;1.45;;;28.00;42.20;;;-147.20;100.00;58430.41;5115754;28;20051;-9
2022/08/13 04:50:44;;;;;;;1.75;1.50;;;28.00;42.20;;;-147.20;100.00;58430.41;5115661;28;20047;-10
2022/08/13 04:53:26;;;;;;;1.75;1.65;;;28.10;42.20;;;-147.20;100.00;58430.41;5115933;28;20051;-9
2022/08/13 04:55:53;;;;;;;2.40;1.42;;;28.10;42.10;;;-147.20;100.00;58430.41;5115583;28;20039;-10
2022/08/13 04:58:19;;;;;;;1.95;1.42;;;28.10;42.00;;;-147.20;100.00;58430.41;5097333;28;20100;-10
2022/08/13 05:00:46;;;;;;;1.80;1.70;;;28.20;41.90;;;-147.20;100.00;58430.41;5115568;28;20051;-10
2022/08/13 05:03:18;;;;;;;1.50;1.40;;;28.20;41.80;;;-147.20;100.00;58430.41;5115469;28;20046;-10
2022/08/13 05:05:49;;;;;;;1.63;1.52;;;28.30;41.90;;;-147.20;100.00;58430.41;5115457;28;20048;-10
2022/08/13 05:08:16;;;;;;;1.50;1.40;;;28.30;41.70;;;-147.20;100.00;58430.41;5115788;28;20048;-10
2022/08/13 05:10:44;;;;;;;1.83;1.50;;;28.40;41.70;;;-147.20;100.00;58430.41;5115328;28;20519;-9
2022/08/13 05:13:34;;;;;;;1.67;1.58;;;28.40;41.70;;;-147.20;100.00;58430.41;5115654;28;20488;-9
2022/08/13 05:16:03;;;;;;;4.13;1.50;;;28.50;41.60;;;-147.20;100.00;58430.41;5115231;28;20071;-10
2022/08/13 05:18:32;;;;;;;1.48;1.38;;;28.50;41.50;;;-147.20;27.62;58430.41;5115195;28;20404;-9
2022/08/13 05:21:01;;;;;;;1.75;1.65;;;28.60;41.60;;;32.38;26.30;101686.47;5115240;28;20417;-12
2022/08/13 05:23:27;;;;;;;2.05;1.63;;;28.60;41.50;;;32.41;26.65;101691.59;5115149;28;20047;-9
2022/08/13 05:25:53;;;;;;;1.60;1.50;;;28.60;41.40;;;32.44;26.67;101685.00;5115060;28;20405;-10
2022/08/13 05:28:20;;;;;;;1.55;1.45;;;28.70;41.40;;;32.49;26.72;101682.69;5115052;28;20039;-9
2022/08/13 05:30:49;;;;;;;1.48;1.30;;;28.70;41.40;;;32.52;26.49;101682.41;5115000;28;20044;-9
2022/08/13 05:33:22;;;;;;;2.83;1.70;;;28.70;41.30;;;32.53;26.18;101673.28;5115423;28;20525;-9
2022/08/13 05:36:01;;;;;;;1.70;1.60;;;28.80;41.30;;;32.58;26.20;101678.22;5115329;28;20131;-10
2022/08/13 05:38:30;;;;;;;2.00;1.75;;;28.80;41.30;;;32.64;26.20;101683.06;5115457;28;20055;-10
2022/08/13 05:40:59;;;;;;;1.55;1.45;;;28.90;41.20;;;32.67;26.35;101674.63;5114824;28;20489;-9
2022/08/13 05:43:29;;;;;;;1.98;1.52;;;28.90;41.20;;;32.68;26.35;101663.66;5115330;28;20466;-13
2022/08/13 05:46:02;;;;;;;1.25;1.17;;;29.00;41.20;;;32.73;26.16;101671.31;5096377;28;20043;-10
2022/08/13 05:48:34;;;;;;;1.42;1.33;;;29.00;41.20;;;32.78;25.96;101665.41;5115093;28;20397;-10
2022/08/13 05:51:04;;;;;;;1.40;1.30;;;29.00;41.10;;;32.83;26.17;101674.81;5114789;28;20040;-10
2022/08/13 05:53:32;;;;;;;1.70;1.60;;;29.00;41.00;;;32.85;25.89;101666.53;5114669;28;20051;-9
2022/08/13 05:55:58;;;;;;;1.73;1.20;;;29.10;41.10;;;32.88;26.18;101660.81;5114694;28;20093;-9
2022/08/13 05:58:25;;;;;;;2.35;1.40;;;29.10;41.00;;;32.92;25.88;101664.03;5094732;28;20044;-9
2022/08/13 06:03:37;;;;;;;1.60;1.50;;;29.20;40.90;;;33.02;26.18;101656.69;5114542;28;20041;-10
2022/08/13 06:06:09;;;;;;;1.30;1.20;;;29.30;40.90;;;33.02;26.05;101660.22;5114412;28;20043;-9
2022/08/13 06:08:40;;;;;;;1.60;1.50;;;29.30;40.90;;;33.09;25.66;101668.59;5114827;28;20047;-9
2022/08/13 06:11:11;;;;;;;1.63;1.52;;;29.30;40.80;;;33.11;26.06;101665.72;5114543;28;20074;-9
2022/08/13 06:13:38;;;;;;;1.40;1.30;;;29.30;40.80;;;33.14;25.88;101666.25;5114726;28;20093;-11
2022/08/13 06:16:12;;;;;;;1.80;1.70;;;29.40;40.80;;;33.19;25.79;101663.97;5096133;28;20040;-10
2022/08/13 06:18:43;;;;;;;1.58;1.42;;;29.40;40.70;;;33.23;25.67;101667.22;5114549;28;20101;-10
2022/08/13 06:21:12;;;;;;;2.03;1.55;;;29.40;40.60;;;33.24;25.77;101663.50;5114071;28;20050;-10
2022/08/13 06:23:39;;;;;;;1.65;1.40;;;29.50;40.60;;;33.31;25.39;101669.97;5114146;28;20040;-10
2022/08/13 06:26:08;;;;;;;1.73;1.63;;;29.50;40.60;;;33.34;25.42;101666.09;5114205;28;20429;-10
2022/08/13 06:28:36;;;;;;;1.58;1.48;;;29.50;40.50;;;33.37;25.80;101669.34;5114111;28;20513;-10
2022/08/13 06:31:11;;;;;;;2.55;1.30;;;29.60;40.50;;;33.38;25.44;101662.94;5114019;28;20044;-10
2022/08/13 06:33:38;;;;;;;1.58;1.48;;;29.60;40.50;;;33.46;25.58;101669.41;5114430;28;20052;-10
2022/08/13 06:36:08;;;;;;;1.55;1.45;;;29.60;40.40;;;33.48;25.38;101664.66;5096225;28;20514;-9
2022/08/13 06:38:54;;;;;;;1.63;1.45;;;29.70;40.40;;;33.51;25.69;101665.19;5113752;28;20043;-10
2022/08/13 06:41:21;;;;;;;1.50;1.40;;;29.80;40.30;;;33.55;25.43;101660.34;5095680;28;20602;-9
2022/08/13 06:43:52;;;;;;;1.50;1.40;;;29.80;40.30;;;33.57;25.59;101655.59;5113684;28;20134;-10
2022/08/13 06:46:28;;;;;;;1.70;1.60;;;29.80;40.80;;;33.59;25.24;101659.81;5113556;28;20511;-10
2022/08/13 06:48:59;;;;;;;1.52;1.42;;;29.90;40.20;;;33.60;25.27;101653.41;5113750;28;20382;-10
2022/08/13 06:51:26;;;;;;;1.60;1.50;;;29.90;40.20;;;33.67;25.18;101661.75;5114319;28;20423;-9
2022/08/13 06:53:54;;;;;;;2.00;1.63;;;29.90;40.10;;;33.70;25.03;101666.03;5113786;28;20039;-10
2022/08/13 06:56:23;;;;;;;1.80;1.60;;;29.90;40.10;;;33.71;25.03;101671.28;5113970;28;20055;-10
2022/08/13 06:58:52;;;;;;;1.52;1.42;;;29.90;40.10;;;33.74;25.20;101664.69;5113398;28;20147;-10
2022/08/13 07:01:22;;;;;;;2.03;1.42;;;30.00;40.10;;;33.77;25.02;101667.09;5113938;28;20043;-10
2022/08/13 07:03:49;;;;;;;1.40;1.30;;;30.00;40.00;;;33.82;24.96;101663.91;5113848;28;20067;-10
2022/08/13 07:06:27;;;;;;;1.48;1.38;;;30.00;40.00;;;33.84;25.20;101668.13;5113443;28;20097;-10
2022/08/13 07:08:59;;;;;;;1.42;1.33;;;30.10;40.00;;;33.84;25.04;101664.59;5113511;28;20047;-9
2022/08/13 07:11:28;;;;;;;1.48;1.30;;;30.10;40.00;;;33.86;25.02;101662.56;5113432;28;20405;-9
2022/08/13 07:13:57;;;;;;;1.33;1.23;;;30.10;40.00;;;33.91;24.99;101669.19;5113368;28;20046;-9
2022/08/13 07:16:30;;;;;;;1.60;1.50;;;30.10;40.00;;;33.91;24.99;101671.91;5113588;28;20056;-9
2022/08/13 07:18:59;;;;;;;1.60;1.50;;;30.10;40.00;;;33.92;25.01;101661.91;5113743;28;20055;-10
2022/08/13 07:21:26;;;;;;;1.70;1.60;;;30.10;40.00;;;33.95;24.96;101659.72;5113292;28;20051;-9
2022/08/13 07:23:54;;;;;;;1.58;1.48;;;30.10;40.00;;;33.97;24.90;101665.00;5113245;28;20475;-9
2022/08/13 07:26:24;;;;;;;1.35;1.25;;;30.10;40.00;;;33.96;24.94;101655.13;5113543;28;20053;-10
2022/08/13 07:28:51;;;;;;;1.55;1.45;;;30.10;40.00;;;34.01;24.67;101662.78;5113306;28;20047;-10
2022/08/13 07:31:24;;;;;;;2.00;1.73;;;30.10;40.00;;;33.97;24.91;101665.00;5113242;28;20055;-10
2022/08/13 07:33:53;;;;;;;2.00;1.60;;;30.10;40.00;;;34.00;24.81;101661.09;5113554;28;20055;-10
2022/08/13 07:36:21;;;;;;;1.50;1.40;;;30.10;40.00;;;34.01;24.76;101660.94;5113017;28;20055;-10
2022/08/13 07:38:48;;;;;;;1.27;1.20;;;30.10;40.00;;;34.00;24.61;101658.38;5112834;28;20079;-10
2022/08/13 07:41:14;;;;;;;2.38;1.60;;;30.10;40.00;;;34.01;24.67;101668.22;5078048;28;20109;-9
2022/08/13 07:43:44;;;;;;;1.33;1.27;;;30.10;40.00;;;33.97;24.93;101660.41;5113417;28;20039;-9
2022/08/13 07:46:17;;;;;;;1.50;1.40;;;30.10;40.10;;;34.03;24.88;101669.78;5113227;28;20130;-10
2022/08/13 07:48:51;;;;;;;1.40;1.30;;;30.10;40.10;;;34.02;24.84;101668.06;5094497;28;20075;-10
2022/08/13 07:51:20;;;;;;;1.60;1.50;;;30.10;40.10;;;34.01;24.72;101666.34;5112893;28;20047;-10
2022/08/13 07:53:50;;;;;;;1.40;1.30;;;30.00;40.00;;;34.04;24.72;101679.59;5112967;28;20040;-9
2022/08/13 07:56:31;;;;;;;1.60;1.40;;;30.00;40.00;;;34.03;24.70;101682.47;5113272;28;20127;-10
2022/08/13 07:59:00;;;;;;;1.42;1.33;;;30.10;40.10;;;34.05;24.56;101689.44;5115566;28;20289;-10
2022/08/13 08:01:33;;;;;;;1.50;1.40;;;30.00;40.00;;;34.02;24.91;101689.78;5116860;28;20047;-9
2022/08/13 08:04:04;;;;;;;1.52;1.42;;;30.10;40.10;;;34.03;24.87;101688.78;5116784;28;20044;-9
2022/08/13 08:06:32;;;;;;;2.10;1.55;;;30.10;40.10;;;34.03;24.75;101688.78;5116718;28;20047;-9
2022/08/13 08:08:58;;;;;;;1.50;1.40;;;30.10;40.10;;;34.05;24.76;101694.00;5116309;28;20058;-10
2022/08/13 08:14:12;;;;;;;1.42;1.33;;;30.10;40.10;;;34.03;24.78;101693.31;5116627;28;20112;-9
2022/08/13 08:16:39;;;;;;;1.70;1.60;;;30.00;40.00;;;34.03;24.92;101685.19;5116275;28;20043;-10
2022/08/13 08:19:05;;;;;;;1.45;1.35;;;30.00;40.10;;;34.02;25.08;101689.78;5116614;28;20039;-9
2022/08/13 08:21:32;;;;;;;1.60;1.50;;;30.00;40.10;;;34.00;24.71;101689.09;5097958;28;20067;-10
2022/08/13 08:24:01;;;;;;;1.80;1.67;;;30.00;40.10;;;34.02;24.64;101688.94;5116119;28;20040;-10
2022/08/13 08:26:30;;;;;;;1.75;1.65;;;30.00;40.10;;;34.03;24.82;101696.03;5097873;28;20446;-10
2022/08/13 08:28:58;;;;;;;1.38;1.27;;;30.00;40.10;;;34.02;24.73;101691.66;5116100;28;20065;-10
2022/08/13 08:31:26;;;;;;;1.50;1.40;;;30.00;40.10;;;33.96;25.00;101687.69;5097808;28;20043;-10
2022/08/13 08:33:55;;;;;;;1.48;1.38;;;30.00;40.20;;;33.95;24.81;101692.28;5116009;28;20578;-10
2022/08/13 08:36:22;;;;;;;1.67;1.58;;;29.90;40.20;;;33.95;25.06;101694.16;5116215;28;20101;-9
2022/08/13 08:44:23;;;;;;;1.20;1.10;;;29.80;40.40;;;33.83;25.00;101685.44;5116107;28;20108;-10
2022/08/13 08:46:59;;;;;;;1.60;1.50;;;29.80;40.50;;;33.82;25.00;101693.75;5115837;28;20043;-10
2022/08/13 08:49:28;;;;;;;1.60;1.50;;;29.80;40.60;;;33.82;25.10;101691.03;5097891;28;20097;-10
2022/08/13 08:51:54;;;;;;;2.47;1.42;;;29.70;40.50;;;33.75;25.21;101691.66;5115992;28;20047;-9
2022/08/13 08:54:22;;;;;;;1.45;1.30;;;29.60;40.60;;;33.70;25.10;101680.44;5097821;28;20063;-10
2022/08/13 08:56:54;;;;;;;1.50;1.40;;;29.70;40.70;;;33.73;25.33;101690.09;5115864;28;20058;-10
2022/08/13 08:59:35;;;;;;;1.40;1.30;;;29.60;40.70;;;33.69;25.46;101692.28;5096979;28;20043;-10
2022/08/13 09:02:16;;;;;;;1.50;1.40;;;29.60;40.80;;;33.63;25.21;101678.50;5115613;28;20047;-10
2022/08/13 09:04:43;;;;;;;1.90;1.42;;;29.50;40.40;;;33.62;25.46;101676.81;5115314;28;20055;-10
2022/08/13 09:07:09;;;;;;;1.40;1.30;;;29.50;40.80;;;33.59;25.35;101681.53;5115666;28;20055;-9
2022/08/13 09:09:36;;;;;;;1.50;1.40;;;29.50;40.80;;;33.59;25.40;101697.78;5114645;28;20469;-10
2022/08/13 09:12:03;;;;;;;1.27;1.27;;;29.50;40.90;;;33.55;25.40;101688.28;5115314;28;20116;-9
2022/08/13 09:14:32;;;;;;;1.45;1.35;;;29.50;41.00;;;33.52;25.29;101691.31;5115324;28;20548;-9
2022/08/13 09:17:02;;;;;;;1.40;1.30;;;29.40;41.00;;;33.52;25.30;101691.31;5115117;28;20468;-10
2022/08/13 09:19:29;;;;;;;1.40;1.30;;;29.40;41.00;;;33.51;25.25;101696.91;5115119;28;20055;-9
2022/08/13 09:21:58;;;;;;;1.50;1.40;;;29.40;41.10;;;33.45;25.64;101682.13;5115570;28;20481;-10
2022/08/13 09:24:25;;;;;;;1.63;1.52;;;29.40;41.10;;;33.43;25.47;101684.16;5114931;28;20077;-10
2022/08/13 09:26:52;;;;;;;1.40;1.30;;;29.40;41.20;;;33.42;25.35;101688.69;5115110;28;20054;-10
2022/08/13 09:29:22;;;;;;;1.92;1.58;;;29.30;41.20;;;33.39;25.42;101682.75;5115222;28;20109;-9
2022/08/13 09:31:50;;;;;;;1.40;1.30;;;29.30;41.20;;;33.37;25.62;101671.22;5115166;28;20050;-10
2022/08/13 09:34:17;;;;;;;1.40;1.30;;;29.30;41.30;;;33.35;25.56;101684.94;5114984;28;20293;-10
2022/08/13 09:36:45;;;;;;;1.52;1.40;;;29.30;41.30;;;33.34;25.66;101680.50;5115062;28;20059;-10
2022/08/13 09:39:33;;;;;;;1.60;1.50;;;29.30;41.30;;;33.29;26.03;101680.13;5114967;28;20082;-9
2022/08/13 09:42:05;;;;;;;1.40;1.30;;;29.20;41.80;;;33.31;25.47;101682.69;5096952;28;20435;-10
2022/08/13 09:44:31;;;;;;;1.45;1.30;;;29.20;41.30;;;33.30;25.63;101681.84;5096170;28;20127;-9
2022/08/13 09:46:57;;;;;;;1.35;1.25;;;29.20;41.30;;;33.24;25.98;101674.34;5114877;28;20531;-9
2022/08/13 09:49:24;;;;;;;1.50;1.40;;;29.20;41.40;;;33.25;25.90;101673.34;5114639;28;20459;-10
2022/08/13 09:51:50;;;;;;;1.83;1.45;;;29.20;41.30;;;33.26;25.94;101671.47;5114795;28;20048;-9
2022/08/13 09:54:17;;;;;;;1.52;1.42;;;29.20;41.40;;;33.24;25.62;101668.91;5115279;28;20443;-10
2022/08/13 09:56:44;;;;;;;1.20;1.10;;;29.20;41.40;;;33.23;25.68;101665.34;5114644;28;20130;-9
2022/08/13 09:59:11;;;;;;;1.40;1.30;;;29.20;41.90;;;33.20;26.06;101659.41;5114711;28;20144;-10
2022/08/13 10:01:38;;;;;;;1.42;1.20;;;29.20;41.40;;;33.20;26.01;101659.41;5114562;28;20185;-9
2022/08/13 10:04:04;;;;;;;1.30;1.20;;;29.20;41.40;;;33.20;25.79;101646.69;5114948;28;20075;-10
2022/08/13 10:06:32;;;;;;;1.30;1.20;;;29.20;41.40;;;33.19;26.03;101652.28;5114538;28;20230;-10
2022/08/13 10:09:01;;;;;;;1.40;1.30;;;29.20;41.50;;;33.19;25.73;101650.41;5114588;28;20142;-10
2022/08/13 10:11:29;;;;;;;1.40;1.30;;;29.20;41.50;;;33.13;26.11;101634.75;5114550;28;20088;-9
2022/08/13 10:13:55;;;;;;;1.52;1.42;;;29.20;41.50;;;33.14;26.12;101635.59;5114897;28;20043;-9
2022/08/13 10:16:21;;;;;;;1.02;1.02;;;29.20;41.50;;;33.16;26.06;101636.31;5114339;28;20127;-9
2022/08/13 10:18:47;;;;;;;1.00;1.00;;;29.10;41.40;;;33.14;26.15;101632.91;5114649;28;20405;-9
2022/08/13 10:21:14;;;;;;;1.45;1.35;;;29.20;41.50;;;33.15;25.73;101642.75;5113170;28;20069;-9
2022/08/13 10:23:40;;;;;;;1.38;1.27;;;29.10;41.40;;;33.14;26.04;101639.16;5114184;28;20050;-10
2022/08/13 10:26:07;;;;;;;1.58;1.48;;;29.10;41.40;;;33.15;26.16;101634.63;5114092;28;20147;-10
2022/08/13 10:28:35;;;;;;;1.50;1.30;;;29.10;41.40;;;33.11;25.71;101625.91;5114220;28;20489;-10
2022/08/13 10:31:07;;;;;;;1.50;1.40;;;29.10;41.40;;;33.11;26.03;101622.38;5114405;28;20461;-10
2022/08/13 10:33:37;;;;;;;1.45;1.35;;;29.10;41.50;;;33.10;26.23;101624.25;5114287;28;20135;-10
2022/08/13 10:36:05;;;;;;;1.63;1.52;;;29.10;41.50;;;33.13;25.86;101615.81;5114316;28;20075;-10
2022/08/13 10:38:33;;;;;;;1.65;1.55;;;29.20;41.50;;;33.13;25.78;101628.47;5114029;28;20481;-9